Time;durP1;ratioP1;P1;durP2;ratioP2;P2;SDS_P1;SDS_P2;PMS_P1;PMS_P2;Temp;Humidity;BMP_temperature;BMP_pressure;BME280_temperature;BME280_humidity;BME280_pressure;Samples;Min_cycle;Max_cycle;Signal;HPM_P1;HPM_P2
2021/07/18 00:01:31;;;;;;;24.35;14.40;;;18.30;99.90;;;;;;5053229;28;20064;-65
2021/07/18 00:03:57;;;;;;;20.17;14.45;;;18.40;99.90;;;;;;5052011;28;20051;-65
2021/07/18 00:06:22;;;;;;;18.05;14.57;;;18.40;99.90;;;;;;5052318;28;20025;-65
2021/07/18 00:08:48;;;;;;;20.73;14.70;;;18.40;99.90;;;;;;5052176;28;20025;-65
2021/07/18 00:11:13;;;;;;;23.05;14.50;;;18.40;99.90;;;;;;5051132;28;20607;-65
2021/07/18 00:13:39;;;;;;;20.00;13.65;;;18.40;99.90;;;;;;5052100;28;20111;-65
2021/07/18 00:16:05;;;;;;;16.20;12.70;;;18.40;99.90;;;;;;5049835;28;20104;-65
2021/07/18 00:18:30;;;;;;;19.08;14.02;;;18.40;99.90;;;;;;5052071;28;20112;-65
2021/07/18 00:20:56;;;;;;;19.45;14.95;;;18.30;99.90;;;;;;5051694;28;20037;-65
2021/07/18 00:23:22;;;;;;;21.85;14.00;;;18.30;99.90;;;;;;5051779;28;20025;-65
2021/07/18 00:25:47;;;;;;;17.55;14.80;;;18.30;99.90;;;;;;5051982;28;20055;-65
2021/07/18 00:28:13;;;;;;;23.98;16.58;;;18.30;99.90;;;;;;5050882;28;20505;-65
2021/07/18 00:30:39;;;;;;;24.92;15.80;;;18.20;99.90;;;;;;5052092;28;20040;-65
2021/07/18 00:33:06;;;;;;;22.92;16.08;;;18.10;99.90;;;;;;5051075;28;20182;-65
2021/07/18 00:35:32;;;;;;;21.75;15.85;;;18.10;99.90;;;;;;5051824;28;20111;-65
2021/07/18 00:37:58;;;;;;;22.00;16.30;;;18.00;99.90;;;;;;5050955;28;20470;-65
2021/07/18 00:40:24;;;;;;;16.73;13.65;;;18.00;99.90;;;;;;5051574;28;20044;-65
2021/07/18 00:42:49;;;;;;;20.33;15.88;;;17.90;99.90;;;;;;5051616;28;20033;-65
2021/07/18 00:45:15;;;;;;;19.80;15.68;;;17.90;99.90;;;;;;5049228;28;20081;-65
2021/07/18 00:47:42;;;;;;;19.20;15.55;;;17.90;99.90;;;;;;5051658;28;20110;-64
2021/07/18 00:50:13;;;;;;;23.05;16.65;;;17.80;99.90;;;;;;5050307;28;20378;-64
2021/07/18 00:52:39;;;;;;;21.63;16.85;;;17.70;99.90;;;;;;5051575;28;20029;-64
2021/07/18 00:55:06;;;;;;;21.35;17.25;;;17.70;99.90;;;;;;5050482;28;20381;-64
2021/07/18 00:57:33;;;;;;;20.35;15.98;;;17.60;99.90;;;;;;5051197;28;20040;-64
2021/07/18 01:00:06;;;;;;;21.25;16.75;;;17.60;99.90;;;;;;5050179;28;20029;-64
2021/07/18 01:02:32;;;;;;;23.90;16.55;;;17.50;99.90;;;;;;5051365;28;20033;-64
2021/07/18 01:04:59;;;;;;;17.70;14.43;;;17.50;99.90;;;;;;5051168;28;20481;-64
2021/07/18 01:07:25;;;;;;;24.38;17.08;;;17.50;99.90;;;;;;5051268;28;20041;-64
2021/07/18 01:09:51;;;;;;;21.27;16.23;;;17.50;99.90;;;;;;5051507;28;20060;-64
2021/07/18 01:12:17;;;;;;;20.70;16.73;;;17.50;99.90;;;;;;5049968;28;20147;-64
2021/07/18 01:14:45;;;;;;;21.35;15.93;;;17.40;99.90;;;;;;5051241;28;20433;-64
2021/07/18 01:17:11;;;;;;;21.55;15.38;;;17.40;99.90;;;;;;5049742;28;20033;-64
2021/07/18 01:19:38;;;;;;;19.38;14.57;;;17.30;99.90;;;;;;5051508;28;20036;-64
2021/07/18 01:22:04;;;;;;;17.23;12.48;;;17.30;99.90;;;;;;5050149;28;20025;-64
2021/07/18 01:24:31;;;;;;;18.80;12.43;;;17.30;99.90;;;;;;5051476;28;20466;-65
2021/07/18 01:26:58;;;;;;;15.75;11.82;;;17.20;99.90;;;;;;5050846;28;20075;-64
2021/07/18 01:29:24;;;;;;;14.88;11.63;;;17.20;99.90;;;;;;5050821;28;20489;-64
2021/07/18 01:31:49;;;;;;;14.10;11.48;;;17.20;99.90;;;;;;5051037;28;20041;-65
2021/07/18 01:34:15;;;;;;;15.07;11.02;;;17.20;99.90;;;;;;5050237;28;20033;-65
2021/07/18 01:36:41;;;;;;;14.00;10.90;;;17.20;99.90;;;;;;5050300;28;20037;-64
2021/07/18 01:39:09;;;;;;;17.17;10.77;;;17.20;99.90;;;;;;5050202;28;20489;-64
2021/07/18 01:41:35;;;;;;;13.93;10.63;;;17.10;99.90;;;;;;5050986;28;20029;-64
2021/07/18 01:44:03;;;;;;;15.45;10.25;;;17.20;99.90;;;;;;5048558;28;20070;-64
2021/07/18 01:46:31;;;;;;;17.83;10.27;;;17.20;99.90;;;;;;5050611;28;20029;-64
2021/07/18 01:48:58;;;;;;;14.00;9.52;;;17.20;99.90;;;;;;5050985;28;20037;-66
2021/07/18 01:51:26;;;;;;;14.82;10.10;;;17.20;99.90;;;;;;5050164;28;20052;-64
2021/07/18 01:54:01;;;;;;;16.13;11.77;;;17.10;99.90;;;;;;5043441;28;20033;-64
2021/07/18 01:56:27;;;;;;;13.10;10.27;;;17.00;99.90;;;;;;5050561;28;20382;-64
2021/07/18 01:58:53;;;;;;;13.35;10.10;;;17.00;99.90;;;;;;5049609;28;20043;-64
2021/07/18 02:01:27;;;;;;;13.35;8.80;;;16.90;99.90;;;;;;5049715;28;20087;-64
2021/07/18 02:03:53;;;;;;;16.55;10.65;;;16.90;99.90;;;;;;5050789;28;20103;-64
2021/07/18 02:06:21;;;;;;;14.10;8.90;;;16.90;99.90;;;;;;5049705;28;20037;-64
2021/07/18 02:08:51;;;;;;;12.85;9.30;;;16.80;99.90;;;;;;5050852;28;20064;-64
2021/07/18 02:11:17;;;;;;;13.80;9.35;;;16.80;99.90;;;;;;5051231;28;20394;-64
2021/07/18 02:13:47;;;;;;;14.00;9.65;;;16.70;99.90;;;;;;5052924;28;20462;-64
2021/07/18 02:16:13;;;;;;;12.73;9.55;;;16.70;99.90;;;;;;5053578;28;20466;-65
2021/07/18 02:18:39;;;;;;;14.55;7.88;;;16.60;99.90;;;;;;5054254;28;20036;-64
2021/07/18 02:21:05;;;;;;;9.95;7.25;;;16.60;99.90;;;;;;5053165;28;20071;-64
2021/07/18 02:23:30;;;;;;;9.73;7.93;;;16.50;99.90;;;;;;5054466;28;20028;-64
2021/07/18 02:25:56;;;;;;;10.77;8.07;;;16.50;99.90;;;;;;5054448;28;20025;-64
2021/07/18 02:28:22;;;;;;;10.48;6.95;;;16.50;99.90;;;;;;5053072;28;20052;-64
2021/07/18 02:30:47;;;;;;;10.15;7.20;;;16.50;99.90;;;;;;5054304;28;20020;-64
2021/07/18 02:33:13;;;;;;;9.15;6.47;;;16.50;99.90;;;;;;5053245;28;20064;-64
2021/07/18 02:35:39;;;;;;;8.55;6.85;;;16.40;99.90;;;;;;5054293;28;20115;-64
2021/07/18 02:38:05;;;;;;;8.48;6.88;;;16.40;99.90;;;;;;5051622;28;20090;-64
2021/07/18 02:40:31;;;;;;;10.52;7.60;;;16.50;99.90;;;;;;5053796;28;20033;-64
2021/07/18 02:42:57;;;;;;;11.60;7.38;;;16.40;99.90;;;;;;5054054;28;20032;-64
2021/07/18 02:45:24;;;;;;;10.77;7.70;;;16.40;99.90;;;;;;5052856;28;20042;-64
2021/07/18 02:47:50;;;;;;;10.45;6.90;;;16.40;99.90;;;;;;5054110;28;20045;-64
2021/07/18 02:50:21;;;;;;;10.20;6.57;;;16.40;99.90;;;;;;5053187;28;20104;-64
2021/07/18 02:52:47;;;;;;;9.90;6.57;;;16.40;99.90;;;;;;5053398;28;20071;-64
2021/07/18 02:55:14;;;;;;;10.63;6.22;;;16.30;99.90;;;;;;5052285;28;20107;-64
2021/07/18 02:57:40;;;;;;;9.05;6.38;;;16.30;99.90;;;;;;5053471;28;20032;-64
2021/07/18 03:00:13;;;;;;;8.00;6.07;;;16.30;99.90;;;;;;5052587;28;20041;-64
2021/07/18 03:02:41;;;;;;;6.72;5.40;;;16.20;99.90;;;;;;5052790;28;20037;-64
2021/07/18 03:05:08;;;;;;;10.20;6.65;;;16.20;99.90;;;;;;5052821;28;20059;-64
2021/07/18 03:07:33;;;;;;;11.52;6.93;;;16.10;99.90;;;;;;5053023;28;20402;-64
2021/07/18 03:09:59;;;;;;;8.70;6.93;;;16.10;99.90;;;;;;5052917;28;20057;-64
2021/07/18 03:12:25;;;;;;;11.35;6.47;;;16.10;99.90;;;;;;5052446;28;20068;-64
2021/07/18 03:14:50;;;;;;;9.20;6.90;;;16.00;99.90;;;;;;5051786;28;20041;-64
2021/07/18 03:17:16;;;;;;;13.98;7.82;;;15.90;99.90;;;;;;5050940;28;20410;-64
2021/07/18 03:19:42;;;;;;;14.63;8.23;;;15.90;99.90;;;;;;5052723;28;20055;-64
2021/07/18 03:22:08;;;;;;;14.63;8.63;;;15.80;99.90;;;;;;5052122;28;20029;-64
2021/07/18 03:24:34;;;;;;;10.43;7.28;;;15.80;99.90;;;;;;5052297;28;20104;-64
2021/07/18 03:27:00;;;;;;;9.77;7.53;;;15.70;99.90;;;;;;5053072;28;20033;-64
2021/07/18 03:29:26;;;;;;;11.43;6.65;;;15.70;99.90;;;;;;5051623;28;20116;-63
2021/07/18 03:31:52;;;;;;;9.40;7.82;;;15.70;99.90;;;;;;5052783;28;20033;-63
2021/07/18 03:34:18;;;;;;;8.88;7.68;;;15.60;99.90;;;;;;5051889;28;20029;-63
2021/07/18 03:36:44;;;;;;;9.50;6.85;;;15.60;99.90;;;;;;5052791;28;20044;-63
2021/07/18 03:39:09;;;;;;;12.57;7.63;;;15.60;99.90;;;;;;5051959;28;20033;-64
2021/07/18 03:41:35;;;;;;;10.23;6.97;;;15.50;99.90;;;;;;5051401;28;20033;-64
2021/07/18 03:44:01;;;;;;;16.55;7.18;;;15.50;99.90;;;;;;5052243;28;20028;-66
2021/07/18 03:46:26;;;;;;;13.98;7.15;;;15.40;99.90;;;;;;5051989;28;20075;-63
2021/07/18 03:48:52;;;;;;;10.63;7.53;;;15.40;99.90;;;;;;5052439;28;20036;-64
2021/07/18 03:51:18;;;;;;;11.07;7.15;;;15.40;99.90;;;;;;5051810;28;20028;-63
2021/07/18 03:53:45;;;;;;;11.43;6.70;;;15.50;99.90;;;;;;5051868;28;20096;-64
2021/07/18 03:56:11;;;;;;;9.95;6.68;;;15.50;99.90;;;;;;5051366;28;20033;-64
2021/07/18 03:58:36;;;;;;;10.60;6.93;;;15.50;99.90;;;;;;5051119;28;20111;-64
2021/07/18 04:01:09;;;;;;;7.68;5.65;;;15.50;99.90;;;;;;5051035;28;20037;-63
2021/07/18 04:03:35;;;;;;;8.60;5.50;;;15.60;99.90;;;;;;5051237;28;20033;-64
2021/07/18 04:06:03;;;;;;;13.60;6.30;;;15.60;99.90;;;;;;5052665;28;20051;-63
2021/07/18 04:08:29;;;;;;;6.00;5.43;;;15.70;99.90;;;;;;5051950;28;20108;-63
2021/07/18 04:10:54;;;;;;;9.05;6.18;;;15.70;99.90;;;;;;5052252;28;20096;-63
2021/07/18 04:13:20;;;;;;;6.95;5.90;;;15.70;99.90;;;;;;5051658;28;20402;-63
2021/07/18 04:15:45;;;;;;;11.23;5.85;;;15.80;99.90;;;;;;5052225;28;20373;-63
2021/07/18 04:18:11;;;;;;;8.13;5.65;;;15.80;99.90;;;;;;5051089;28;20078;-63
2021/07/18 04:20:38;;;;;;;11.35;6.28;;;15.80;99.90;;;;;;5051707;28;20091;-63
2021/07/18 04:23:04;;;;;;;13.40;5.95;;;15.80;99.90;;;;;;5051732;28;20039;-64
2021/07/18 04:25:30;;;;;;;5.68;4.70;;;15.80;99.90;;;;;;5051492;28;20028;-63
2021/07/18 04:27:56;;;;;;;15.23;5.63;;;15.90;99.90;;;;;;5051749;28;20079;-64
2021/07/18 04:30:22;;;;;;;7.50;4.45;;;15.90;99.90;;;;;;5051217;28;20032;-63
2021/07/18 04:32:48;;;;;;;7.80;4.50;;;16.00;99.90;;;;;;5052036;28;20033;-64
2021/07/18 04:35:14;;;;;;;6.20;4.20;;;16.00;99.90;;;;;;5050842;28;20477;-64
2021/07/18 04:37:40;;;;;;;5.82;4.20;;;16.10;99.90;;;;;;5051800;28;20040;-64
2021/07/18 04:40:07;;;;;;;6.97;5.00;;;16.10;99.90;;;;;;5051294;28;20037;-63
2021/07/18 04:42:32;;;;;;;8.77;4.88;;;16.10;99.90;;;;;;5051760;28;20127;-63
2021/07/18 04:44:58;;;;;;;4.95;4.43;;;16.10;99.90;;;;;;5051641;28;20107;-63
2021/07/18 04:47:24;;;;;;;6.15;4.45;;;16.10;99.90;;;;;;5050437;28;20709;-64
2021/07/18 04:49:50;;;;;;;6.65;4.80;;;16.20;99.90;;;;;;5051516;28;20041;-63
2021/07/18 04:52:17;;;;;;;7.25;4.50;;;16.30;99.90;;;;;;5050649;28;20190;-63
2021/07/18 04:54:43;;;;;;;7.30;4.30;;;16.30;99.90;;;;;;5050482;28;20382;-63
2021/07/18 04:57:09;;;;;;;4.53;3.78;;;16.40;99.90;;;;;;5050765;28;20056;-63
2021/07/18 04:59:35;;;;;;;7.55;4.20;;;16.40;99.90;;;;;;5051600;28;20037;-63
2021/07/18 05:02:01;;;;;;;6.70;4.07;;;16.50;99.90;;;;;;5051188;28;20474;-63
2021/07/18 05:04:27;;;;;;;4.53;3.60;;;16.60;99.90;;;;;;5050255;28;20094;-63
2021/07/18 05:06:52;;;;;;;4.70;3.40;;;16.70;99.90;;;;;;5051481;28;20031;-63
2021/07/18 05:09:18;;;;;;;7.18;4.43;;;16.80;99.90;;;;;;5050533;28;20056;-63
2021/07/18 05:11:43;;;;;;;4.38;3.13;;;16.90;99.90;;;;;;5051308;28;20075;-63
2021/07/18 05:14:09;;;;;;;6.93;3.17;;;16.90;99.90;;;;;;5050572;28;20367;-63
2021/07/18 05:16:35;;;;;;;3.70;3.20;;;17.00;99.90;;;;;;5050904;28;20056;-63
2021/07/18 05:19:00;;;;;;;13.32;3.65;;;17.00;99.90;;;;;;5051342;28;20021;-63
2021/07/18 05:21:26;;;;;;;7.72;3.20;;;17.10;99.90;;;;;;5050464;28;20197;-63
2021/07/18 05:23:52;;;;;;;7.70;3.47;;;17.20;99.90;;;;;;5051074;28;20453;-63
2021/07/18 05:26:17;;;;;;;7.22;3.42;;;17.40;99.90;;;;;;5050011;28;20070;-63
2021/07/18 05:28:43;;;;;;;9.32;3.30;;;17.40;99.90;;;;;;5051256;28;20079;-63
2021/07/18 05:31:09;;;;;;;7.03;4.03;;;17.50;99.90;;;;;;5050782;28;20037;-63
2021/07/18 05:33:35;;;;;;;6.35;2.70;;;17.60;99.90;;;;;;5051045;28;20037;-63
2021/07/18 05:36:01;;;;;;;3.85;2.55;;;17.60;99.90;;;;;;5050649;28;20037;-64
2021/07/18 05:38:26;;;;;;;5.97;3.17;;;17.70;99.90;;;;;;5050311;28;20608;-64
2021/07/18 05:40:52;;;;;;;6.65;2.92;;;17.70;99.90;;;;;;5049385;28;20068;-63
2021/07/18 05:43:18;;;;;;;9.00;2.80;;;17.80;99.90;;;;;;5050308;28;20110;-64
2021/07/18 05:45:43;;;;;;;4.75;2.83;;;17.90;99.90;;;;;;5051501;28;20032;-64
2021/07/18 05:48:09;;;;;;;3.30;2.13;;;18.00;99.90;;;;;;5054490;28;20036;-64
2021/07/18 05:50:35;;;;;;;9.23;2.30;;;18.00;99.90;;;;;;5054690;28;20064;-64
2021/07/18 05:53:01;;;;;;;5.35;2.53;;;18.10;98.90;;;;;;5055056;28;20021;-64
2021/07/18 05:55:26;;;;;;;8.43;2.67;;;18.30;97.40;;;;;;5053718;28;20122;-64
2021/07/18 05:57:53;;;;;;;5.95;1.90;;;18.40;97.40;;;;;;5054530;28;20102;-64
2021/07/18 06:00:20;;;;;;;6.95;1.77;;;18.40;96.10;;;;;;5053999;28;20025;-64
2021/07/18 06:02:45;;;;;;;6.75;2.10;;;18.40;96.10;;;;;;5054728;28;20028;-64
2021/07/18 06:05:12;;;;;;;4.95;2.20;;;18.40;97.10;;;;;;5053689;28;20021;-64
2021/07/18 06:07:41;;;;;;;4.82;2.53;;;18.40;96.20;;;;;;5054698;28;20528;-63
2021/07/18 06:10:08;;;;;;;3.72;2.25;;;18.40;96.10;;;;;;5054546;28;20059;-63
2021/07/18 06:12:33;;;;;;;4.22;1.85;;;18.50;96.90;;;;;;5054140;28;20064;-64
2021/07/18 06:14:59;;;;;;;3.60;2.30;;;18.60;96.80;;;;;;5054504;28;20470;-64
2021/07/18 06:17:25;;;;;;;5.10;2.00;;;18.70;95.70;;;;;;5053405;28;20100;-64
2021/07/18 06:19:50;;;;;;;4.05;2.35;;;18.70;95.80;;;;;;5054457;28;20017;-64
2021/07/18 06:22:16;;;;;;;5.05;2.30;;;18.70;95.50;;;;;;5053109;28;20419;-64
2021/07/18 06:24:42;;;;;;;11.27;2.10;;;18.80;95.70;;;;;;5054409;28;20127;-63
2021/07/18 06:27:08;;;;;;;4.75;2.10;;;18.80;95.20;;;;;;5053915;28;20458;-64
2021/07/18 06:29:34;;;;;;;7.70;2.50;;;18.90;95.20;;;;;;5053726;28;20028;-64
2021/07/18 06:32:00;;;;;;;5.72;1.88;;;18.90;94.80;;;;;;5054323;28;20025;-63
2021/07/18 06:34:26;;;;;;;6.95;1.85;;;19.00;94.10;;;;;;5053251;28;20032;-64
2021/07/18 06:36:52;;;;;;;6.55;2.30;;;19.10;93.10;;;;;;5052187;28;20033;-64
2021/07/18 06:39:19;;;;;;;3.58;1.85;;;19.20;93.50;;;;;;5053267;28;20100;-66
2021/07/18 06:41:44;;;;;;;3.95;2.33;;;19.20;94.20;;;;;;5054096;28;20079;-63
2021/07/18 06:44:10;;;;;;;3.58;2.10;;;19.20;92.80;;;;;;5053640;28;20441;-64
2021/07/18 06:46:36;;;;;;;5.18;2.40;;;19.20;92.60;;;;;;5053159;28;20082;-64
2021/07/18 06:49:02;;;;;;;5.18;2.13;;;19.30;92.20;;;;;;5053959;28;20128;-64
2021/07/18 06:51:28;;;;;;;3.53;1.65;;;19.30;92.20;;;;;;5052671;28;20369;-65
2021/07/18 06:53:54;;;;;;;3.92;2.40;;;19.30;92.20;;;;;;5053679;28;20438;-64
2021/07/18 06:56:19;;;;;;;5.07;2.25;;;19.40;92.40;;;;;;5053031;28;20047;-64
2021/07/18 06:58:45;;;;;;;4.85;1.95;;;19.40;92.10;;;;;;5051892;28;20037;-65
2021/07/18 07:01:10;;;;;;;3.10;2.10;;;19.50;92.10;;;;;;5053107;28;20029;-65
2021/07/18 07:03:36;;;;;;;7.10;2.33;;;19.60;93.00;;;;;;5053134;28;20021;-64
2021/07/18 07:06:02;;;;;;;5.95;2.05;;;19.70;91.60;;;;;;5052832;28;20116;-64
2021/07/18 07:08:29;;;;;;;2.63;1.63;;;19.70;91.40;;;;;;5052485;28;20044;-65
2021/07/18 07:10:55;;;;;;;8.38;2.70;;;19.60;91.90;;;;;;5053275;28;20032;-63
2021/07/18 07:13:20;;;;;;;5.05;1.88;;;19.60;92.20;;;;;;5052348;28;20096;-63
2021/07/18 07:15:46;;;;;;;6.10;2.10;;;19.70;92.10;;;;;;5053305;28;20129;-64
2021/07/18 07:18:11;;;;;;;5.00;2.10;;;19.80;91.40;;;;;;5052189;28;20029;-64
2021/07/18 07:20:37;;;;;;;5.25;1.95;;;19.80;91.20;;;;;;5052655;28;20027;-63
2021/07/18 07:23:03;;;;;;;5.45;1.90;;;19.90;90.60;;;;;;5052361;28;20032;-67
2021/07/18 07:25:29;;;;;;;3.72;2.25;;;19.90;90.90;;;;;;5051582;28;20079;-63
2021/07/18 07:27:54;;;;;;;5.68;2.13;;;20.00;90.90;;;;;;5052582;28;20114;-64
2021/07/18 07:30:21;;;;;;;6.63;1.92;;;20.10;90.80;;;;;;5052024;28;20056;-63
2021/07/18 07:32:46;;;;;;;4.50;2.60;;;20.00;91.40;;;;;;5052545;28;20029;-66
2021/07/18 07:35:15;;;;;;;4.80;2.15;;;20.10;91.30;;;;;;5051418;28;20025;-64
2021/07/18 07:37:42;;;;;;;4.07;1.92;;;20.40;91.10;;;;;;5051313;28;20036;-63
2021/07/18 07:40:11;;;;;;;4.45;1.88;;;20.40;91.10;;;;;;5051277;28;20117;-64
2021/07/18 07:42:36;;;;;;;4.47;2.15;;;20.40;90.50;;;;;;5050965;28;20067;-64
2021/07/18 07:45:04;;;;;;;2.92;1.77;;;20.40;90.70;;;;;;5051493;28;20028;-65
2021/07/18 07:47:29;;;;;;;8.50;2.15;;;20.50;90.00;;;;;;5050246;28;20043;-66
2021/07/18 07:49:55;;;;;;;6.60;2.65;;;20.70;89.90;;;;;;5047181;28;20037;-65
2021/07/18 07:52:22;;;;;;;5.82;2.38;;;20.70;89.60;;;;;;5050031;28;20029;-65
2021/07/18 07:54:47;;;;;;;4.40;2.33;;;20.70;89.50;;;;;;5051067;28;20041;-65
2021/07/18 07:57:13;;;;;;;3.67;1.83;;;20.70;90.20;;;;;;5050063;28;20041;-65
2021/07/18 07:59:39;;;;;;;6.35;2.30;;;20.70;90.10;;;;;;5050798;28;20444;-65
2021/07/18 08:02:04;;;;;;;5.30;2.72;;;20.70;89.00;;;;;;5051378;28;20072;-66
2021/07/18 08:04:30;;;;;;;5.32;2.42;;;20.60;90.40;;;;;;5049896;28;20484;-65
2021/07/18 08:06:57;;;;;;;8.55;3.08;;;20.60;90.70;;;;;;5050237;28;20068;-66
2021/07/18 08:09:22;;;;;;;8.38;2.60;;;20.80;89.20;;;;;;5050355;28;20032;-64
2021/07/18 08:11:49;;;;;;;11.07;3.17;;;20.80;89.70;;;;;;5051866;28;20107;-63
2021/07/18 08:14:15;;;;;;;2.90;2.10;;;20.80;89.60;;;;;;5050646;28;20036;-64
2021/07/18 08:16:41;;;;;;;4.70;2.22;;;20.80;90.80;;;;;;5051681;28;20060;-67
2021/07/18 08:19:07;;;;;;;3.92;2.40;;;20.90;91.10;;;;;;5052487;28;20123;-64
2021/07/18 08:21:32;;;;;;;5.80;2.63;;;21.10;90.10;;;;;;5054039;28;20100;-65
2021/07/18 08:23:58;;;;;;;6.22;3.08;;;21.20;88.50;;;;;;5051565;28;20043;-64
2021/07/18 08:26:23;;;;;;;4.90;2.45;;;21.30;89.60;;;;;;5051176;28;20029;-65
2021/07/18 08:28:49;;;;;;;4.63;2.30;;;21.30;88.90;;;;;;5050230;28;20036;-67
2021/07/18 08:31:17;;;;;;;5.00;2.67;;;21.30;88.10;;;;;;5049514;28;20106;-67
2021/07/18 08:33:43;;;;;;;4.28;2.60;;;21.40;87.30;;;;;;5051473;28;20033;-67
2021/07/18 08:36:09;;;;;;;4.07;2.30;;;21.40;88.70;;;;;;5051581;28;20029;-67
2021/07/18 08:38:35;;;;;;;5.13;2.78;;;21.40;88.80;;;;;;5050393;28;20048;-67
2021/07/18 08:41:00;;;;;;;8.57;2.70;;;21.60;87.50;;;;;;5053231;28;20033;-68
2021/07/18 08:43:26;;;;;;;5.10;3.05;;;21.70;87.10;;;;;;5054970;28;20044;-68
2021/07/18 08:45:52;;;;;;;6.90;2.33;;;21.70;86.10;;;;;;5051774;28;20036;-68
2021/07/18 08:48:18;;;;;;;6.55;3.22;;;21.70;87.30;;;;;;5050668;28;20068;-69
2021/07/18 08:50:44;;;;;;;8.25;3.13;;;21.80;87.30;;;;;;5051611;28;20052;-66
2021/07/18 08:53:10;;;;;;;3.65;2.55;;;21.90;86.60;;;;;;5050855;28;20398;-68
2021/07/18 08:55:39;;;;;;;10.32;2.80;;;22.10;86.90;;;;;;5049409;28;20048;-65
2021/07/18 08:58:05;;;;;;;6.47;2.70;;;22.20;87.00;;;;;;5050781;28;20167;-70
2021/07/18 09:00:31;;;;;;;4.10;2.72;;;22.30;83.00;;;;;;5050574;28;20049;-66
2021/07/18 09:02:57;;;;;;;8.95;2.72;;;22.30;83.90;;;;;;5051373;28;20439;-67
2021/07/18 09:05:23;;;;;;;5.50;2.70;;;22.40;84.60;;;;;;5051862;28;20032;-69
2021/07/18 09:07:51;;;;;;;6.57;2.45;;;22.30;83.40;;;;;;5052110;28;20108;-67
2021/07/18 09:10:27;;;;;;;7.85;2.72;;;22.40;83.20;;;;;;5053254;28;20021;-64
2021/07/18 09:13:10;;;;;;;4.43;2.33;;;22.40;84.00;;;;;;5051529;28;20367;-66
2021/07/18 09:15:50;;;;;;;8.57;2.65;;;22.50;82.90;;;;;;5051587;28;20032;-67
2021/07/18 09:18:26;;;;;;;4.72;2.65;;;22.60;84.10;;;;;;5049713;28;20040;-66
2021/07/18 09:20:55;;;;;;;5.53;3.00;;;22.60;82.20;;;;;;5051056;28;20040;-67
2021/07/18 09:23:21;;;;;;;6.15;2.63;;;22.70;82.90;;;;;;5051088;28;20032;-68
2021/07/18 09:25:49;;;;;;;6.32;3.00;;;22.70;82.40;;;;;;5051546;28;20017;-67
2021/07/18 09:28:20;;;;;;;7.10;2.70;;;22.80;82.00;;;;;;5050948;28;20116;-67
2021/07/18 09:30:48;;;;;;;6.13;2.83;;;23.00;82.40;;;;;;5045733;28;20078;-65
2021/07/18 09:33:24;;;;;;;6.03;2.70;;;23.10;81.80;;;;;;5049878;28;20029;-66
2021/07/18 09:35:50;;;;;;;4.32;2.40;;;23.30;80.40;;;;;;5050992;28;20128;-65
2021/07/18 09:38:24;;;;;;;5.43;2.53;;;23.30;80.10;;;;;;5042817;28;20132;-66
2021/07/18 09:40:58;;;;;;;5.45;2.50;;;23.40;80.30;;;;;;5051301;28;20041;-66
2021/07/18 09:43:23;;;;;;;3.08;2.35;;;23.50;78.90;;;;;;5050499;28;20025;-65
2021/07/18 09:46:07;;;;;;;5.88;2.28;;;23.60;77.80;;;;;;5050989;28;20043;-65
2021/07/18 09:48:38;;;;;;;5.97;2.30;;;23.70;77.50;;;;;;5050719;28;20028;-65
2021/07/18 09:51:14;;;;;;;3.92;2.20;;;23.80;76.80;;;;;;5050840;28;20164;-65
2021/07/18 09:53:43;;;;;;;8.90;2.47;;;23.70;78.00;;;;;;5051296;28;20048;-65
2021/07/18 09:56:18;;;;;;;7.90;2.20;;;23.70;77.70;;;;;;5050882;28;20128;-65
2021/07/18 09:58:57;;;;;;;4.93;2.63;;;23.70;77.20;;;;;;5051519;28;20390;-66
2021/07/18 10:01:24;;;;;;;4.13;2.10;;;23.70;77.60;;;;;;5047994;28;20086;-65
2021/07/18 10:03:52;;;;;;;4.32;2.47;;;23.80;78.00;;;;;;5051173;28;20048;-65
2021/07/18 10:06:19;;;;;;;4.13;2.40;;;24.00;76.40;;;;;;5050692;28;20063;-66
2021/07/18 10:08:50;;;;;;;9.57;2.38;;;24.10;76.80;;;;;;5051056;28;20033;-65
2021/07/18 10:11:18;;;;;;;5.50;2.25;;;24.30;75.50;;;;;;5050422;28;20082;-65
2021/07/18 10:13:45;;;;;;;5.85;2.35;;;24.40;75.40;;;;;;5051358;28;20100;-65
2021/07/18 10:16:12;;;;;;;5.93;2.65;;;24.40;76.10;;;;;;5050881;28;20531;-66
2021/07/18 10:18:40;;;;;;;5.30;2.75;;;24.50;74.40;;;;;;5051042;28;20381;-66
2021/07/18 10:21:08;;;;;;;4.28;2.38;;;24.60;73.40;;;;;;5050842;28;20033;-65
2021/07/18 10:23:35;;;;;;;6.95;2.30;;;24.70;75.00;;;;;;5050600;28;20036;-65
2021/07/18 10:26:02;;;;;;;4.30;2.40;;;24.80;74.60;;;;;;5050965;28;20182;-65
2021/07/18 10:28:28;;;;;;;5.43;2.20;;;24.90;72.80;;;;;;5050220;28;20033;-65
2021/07/18 10:31:23;;;;;;;5.78;2.35;;;25.10;73.40;;;;;;5051394;28;20041;-65
2021/07/18 10:33:49;;;;;;;3.20;2.30;;;25.10;72.70;;;;;;5054247;28;20025;-66
2021/07/18 10:36:19;;;;;;;3.58;2.42;;;24.90;70.30;;;;;;5053804;28;20394;-68
2021/07/18 10:38:45;;;;;;;12.43;2.97;;;25.00;72.00;;;;;;5054629;28;20040;-65
2021/07/18 10:41:12;;;;;;;5.97;2.65;;;25.20;71.60;;;;;;5053732;28;20496;-65
2021/07/18 10:43:44;;;;;;;4.30;2.33;;;25.20;69.90;;;;;;5053076;28;20021;-65
2021/07/18 10:46:12;;;;;;;5.35;2.60;;;25.20;70.60;;;;;;5052713;28;20037;-67
2021/07/18 10:48:49;;;;;;;5.55;2.40;;;25.30;71.60;;;;;;5051845;28;20395;-68
2021/07/18 10:51:35;;;;;;;6.50;2.45;;;25.40;70.20;;;;;;5051655;28;20035;-66
2021/07/18 10:54:09;;;;;;;10.05;2.55;;;25.60;69.70;;;;;;5054206;28;20118;-66
2021/07/18 10:56:52;;;;;;;5.50;2.30;;;25.60;67.80;;;;;;5052679;28;20037;-67
2021/07/18 10:59:40;;;;;;;6.93;2.40;;;25.60;71.30;;;;;;5051626;28;20044;-64
2021/07/18 11:02:11;;;;;;;4.65;2.25;;;;;;;;;;5051412;28;20021;-64
2021/07/18 11:04:58;;;;;;;6.47;2.80;;;;;;;;;;5050857;28;20028;-64
2021/07/18 11:07:28;;;;;;;4.47;2.30;;;;;;;;;;5052187;28;20090;-64
2021/07/18 11:09:57;;;;;;;4.60;2.50;;;;;;;;;;5052949;28;20108;-64
2021/07/18 11:12:37;;;;;;;7.05;2.60;;;;;;;;;;5052434;28;20051;-64
2021/07/18 11:15:21;;;;;;;4.47;1.93;;;;;;;;;;5053160;28;20021;-64
2021/07/18 11:17:58;;;;;;;5.32;2.33;;;26.30;68.40;;;;;;5051808;28;20048;-67
2021/07/18 11:20:52;;;;;;;5.35;2.45;;;26.30;69.40;;;;;;5051129;28;20112;-66
2021/07/18 11:23:29;;;;;;;6.50;2.53;;;26.60;65.40;;;;;;5050068;28;20040;-66
2021/07/18 11:26:05;;;;;;;5.50;2.60;;;26.60;64.00;;;;;;5050477;28;20036;-66
2021/07/18 11:28:35;;;;;;;6.07;1.95;;;26.40;64.20;;;;;;5050689;28;20490;-68
2021/07/18 11:31:10;;;;;;;3.53;2.80;;;26.50;64.60;;;;;;5051909;28;20033;-67
2021/07/18 11:33:49;;;;;;;4.10;2.15;;;26.50;64.00;;;;;;5050673;28;20033;-67
2021/07/18 11:36:22;;;;;;;6.35;2.53;;;26.50;66.00;;;;;;5051657;28;20033;-67
2021/07/18 11:38:49;;;;;;;6.25;2.63;;;26.60;63.70;;;;;;5051104;28;20033;-66
2021/07/18 11:41:25;;;;;;;4.07;2.63;;;26.50;64.30;;;;;;5051541;28;20037;-68
2021/07/18 11:43:58;;;;;;;4.53;2.95;;;26.50;64.40;;;;;;5049785;28;20142;-69
2021/07/18 11:46:25;;;;;;;7.63;2.38;;;26.20;65.10;;;;;;5052538;28;20021;-71
2021/07/18 11:48:53;;;;;;;4.78;2.30;;;26.20;66.40;;;;;;5053309;28;20033;-71
2021/07/18 11:51:21;;;;;;;7.55;2.88;;;26.40;64.60;;;;;;5052380;28;20029;-70
2021/07/18 11:53:52;;;;;;;5.15;3.08;;;26.70;63.10;;;;;;5052779;28;20100;-68
2021/07/18 11:56:30;;;;;;;6.75;2.55;;;27.00;63.40;;;;;;5052157;28;20049;-72
2021/07/18 11:59:01;;;;;;;5.57;2.78;;;27.20;62.30;;;;;;5052852;28;20033;-68
2021/07/18 12:01:29;;;;;;;5.40;2.67;;;27.40;63.00;;;;;;5051216;28;20468;-76
2021/07/18 12:03:56;;;;;;;4.68;2.95;;;27.70;60.00;;;;;;5052243;28;20032;-72
2021/07/18 12:06:23;;;;;;;6.32;3.00;;;27.80;59.50;;;;;;5052132;28;20036;-79
2021/07/18 12:08:50;;;;;;;8.15;3.63;;;28.00;58.90;;;;;;5052592;28;20394;-68
2021/07/18 12:11:30;;;;;;;3.97;2.90;;;27.90;60.60;;;;;;5052101;28;20429;-71
2021/07/18 12:13:59;;;;;;;6.55;3.15;;;27.80;62.40;;;;;;5052393;28;20037;-69
2021/07/18 12:16:25;;;;;;;4.72;2.70;;;27.90;60.10;;;;;;5051973;28;20059;-66
2021/07/18 12:18:53;;;;;;;9.68;5.28;;;27.80;61.20;;;;;;5052058;28;20363;-66
2021/07/18 12:21:27;;;;;;;8.63;5.32;;;27.70;59.10;;;;;;5051278;28;20033;-67
2021/07/18 12:24:15;;;;;;;8.68;5.50;;;27.30;60.30;;;;;;5044814;28;20482;-67
2021/07/18 12:27:05;;;;;;;9.07;5.63;;;27.10;60.90;;;;;;5050853;28;20032;-66
2021/07/18 12:29:37;;;;;;;8.85;5.70;;;27.20;60.50;;;;;;5047782;28;20039;-66
2021/07/18 12:32:04;;;;;;;8.25;6.57;;;27.40;61.60;;;;;;5051795;28;20379;-66
2021/07/18 12:34:41;;;;;;;11.00;7.15;;;27.50;59.60;;;;;;5051495;28;20029;-65
2021/07/18 12:37:12;;;;;;;13.85;7.20;;;27.50;60.70;;;;;;5052070;28;20109;-66
2021/07/18 12:39:40;;;;;;;10.93;6.78;;;27.40;59.50;;;;;;5051116;28;20033;-65
2021/07/18 12:42:21;;;;;;;12.85;6.95;;;27.30;60.00;;;;;;5051870;28;20024;-66
2021/07/18 12:44:52;;;;;;;10.85;6.90;;;27.40;61.70;;;;;;5044532;28;20386;-67
2021/07/18 12:47:18;;;;;;;10.07;8.05;;;27.60;61.10;;;;;;5052261;28;20025;-72